createdAt,value
2023-03-14T00:00:57.638Z,4.57
2023-03-14T00:03:24.758Z,3.80
2023-03-14T00:05:51.865Z,4.70
2023-03-14T00:08:19.064Z,4.95
2023-03-14T00:10:46.133Z,4.28
2023-03-14T00:13:13.243Z,4.85
2023-03-14T00:15:40.410Z,4.22
2023-03-14T00:18:07.530Z,4.35
2023-03-14T00:20:34.606Z,4.88
2023-03-14T00:23:01.779Z,4.70
2023-03-14T00:25:28.882Z,5.10
2023-03-14T00:27:55.954Z,4.45
2023-03-14T00:30:23.275Z,5.50
2023-03-14T00:32:50.528Z,5.20
2023-03-14T00:35:17.653Z,4.43
2023-03-14T00:37:44.836Z,5.15
2023-03-14T00:40:12.140Z,4.72
2023-03-14T00:42:39.257Z,4.47
2023-03-14T00:45:08.677Z,4.53
2023-03-14T00:47:35.820Z,5.47
2023-03-14T00:50:03.268Z,5.20
2023-03-14T00:52:30.446Z,4.95
2023-03-14T00:54:57.576Z,5.00
2023-03-14T00:57:24.668Z,4.65
2023-03-14T00:59:52.888Z,4.43
2023-03-14T01:02:20.056Z,4.85
2023-03-14T01:04:49.113Z,4.97
2023-03-14T01:07:16.505Z,4.97
2023-03-14T01:09:43.641Z,5.35
2023-03-14T01:12:10.739Z,5.38
2023-03-14T01:14:37.929Z,4.60
2023-03-14T01:17:05.005Z,4.72
2023-03-14T01:19:32.562Z,5.18
2023-03-14T01:21:59.792Z,5.20
2023-03-14T01:24:26.879Z,4.38
2023-03-14T01:26:53.981Z,5.05
2023-03-14T01:29:21.218Z,4.75
2023-03-14T01:31:48.430Z,4.43
2023-03-14T01:34:16.729Z,4.05
2023-03-14T01:36:43.919Z,4.68
2023-03-14T01:39:11.063Z,4.63
2023-03-14T01:41:38.233Z,4.70
2023-03-14T01:44:05.406Z,4.32
2023-03-14T01:46:35.844Z,4.13
2023-03-14T01:49:05.944Z,4.00
2023-03-14T01:51:38.522Z,4.75
2023-03-14T01:54:25.910Z,4.97
2023-03-14T01:57:03.799Z,4.57
2023-03-14T01:59:32.015Z,4.65
2023-03-14T02:01:59.453Z,4.72
2023-03-14T02:04:30.288Z,4.78
2023-03-14T02:07:01.265Z,4.47
2023-03-14T02:09:28.398Z,4.85
2023-03-14T02:11:55.733Z,4.68
2023-03-14T02:14:35.947Z,4.60
2023-03-14T02:17:08.532Z,5.10
2023-03-14T02:19:54.465Z,4.45
2023-03-14T02:22:21.782Z,4.75
2023-03-14T02:24:59.471Z,4.97
2023-03-14T02:27:27.331Z,4.82
2023-03-14T02:29:57.143Z,4.57
2023-03-14T02:32:25.504Z,4.63
2023-03-14T02:34:56.054Z,4.68
2023-03-14T02:37:24.976Z,4.65
2023-03-14T02:39:52.444Z,4.60
2023-03-14T02:42:19.651Z,4.95
2023-03-14T02:45:01.375Z,4.25
2023-03-14T02:47:31.432Z,4.90
2023-03-14T02:50:02.729Z,4.22
2023-03-14T02:54:57.127Z,5.00
2023-03-14T02:57:24.208Z,5.10
2023-03-14T02:59:51.342Z,5.63
2023-03-14T03:02:18.846Z,5.20
2023-03-14T03:04:45.929Z,5.57
2023-03-14T03:07:13.074Z,4.93
2023-03-14T03:09:40.209Z,5.28
2023-03-14T03:12:07.409Z,5.45
2023-03-14T03:14:34.552Z,5.10
2023-03-14T03:17:01.849Z,5.20
2023-03-14T03:19:28.987Z,5.78
2023-03-14T03:21:56.081Z,6.05
2023-03-14T03:24:23.409Z,6.10
2023-03-14T03:26:50.542Z,6.00
2023-03-14T03:29:17.689Z,5.80
2023-03-14T03:31:46.429Z,5.30
2023-03-14T03:34:14.294Z,6.07
2023-03-14T03:36:41.758Z,5.40
2023-03-14T03:39:09.044Z,5.38
2023-03-14T03:41:36.284Z,5.88
2023-03-14T03:44:03.383Z,6.43
2023-03-14T03:46:30.680Z,6.80
2023-03-14T03:48:58.610Z,7.22
2023-03-14T03:51:26.110Z,7.35
2023-03-14T03:53:53.424Z,5.88
2023-03-14T03:56:20.568Z,6.38
2023-03-14T03:58:47.653Z,7.15
2023-03-14T04:01:14.937Z,5.78
2023-03-14T04:03:42.290Z,6.40
2023-03-14T04:06:10.982Z,6.43
2023-03-14T04:08:38.544Z,6.20
2023-03-14T04:11:06.027Z,5.88
2023-03-14T04:13:33.111Z,6.38
2023-03-14T04:16:00.434Z,5.97
2023-03-14T04:18:27.940Z,5.57
2023-03-14T04:20:55.334Z,5.38
2023-03-14T04:23:25.227Z,5.90
2023-03-14T04:25:52.859Z,4.95
2023-03-14T04:28:20.026Z,5.97
2023-03-14T04:30:47.240Z,5.20
2023-03-14T04:33:18.155Z,5.18
2023-03-14T04:35:46.012Z,5.63
2023-03-14T04:38:13.197Z,6.00
2023-03-14T04:40:41.105Z,6.75
2023-03-14T04:43:09.273Z,5.75
2023-03-14T04:45:36.422Z,5.68
2023-03-14T04:48:03.557Z,5.28
2023-03-14T04:50:30.692Z,5.47
2023-03-14T04:52:57.878Z,5.80
2023-03-14T04:55:24.968Z,5.75
2023-03-14T04:57:52.074Z,4.57
2023-03-14T05:00:20.003Z,4.85
2023-03-14T05:02:47.472Z,5.10
2023-03-14T05:05:14.609Z,4.57
2023-03-14T05:07:41.771Z,5.15
2023-03-14T05:10:09.098Z,4.53
2023-03-14T05:12:36.224Z,4.63
2023-03-14T05:15:03.551Z,5.10
2023-03-14T05:17:30.664Z,4.40
2023-03-14T05:19:57.802Z,4.45
2023-03-14T05:22:24.996Z,5.20
2023-03-14T05:24:52.069Z,4.57
2023-03-14T05:27:19.141Z,4.50
2023-03-14T05:29:46.289Z,4.55
2023-03-14T05:32:13.361Z,4.38
2023-03-14T05:34:40.464Z,4.88
2023-03-14T05:37:08.112Z,4.07
2023-03-14T05:39:35.214Z,4.30
2023-03-14T05:42:02.826Z,4.55
2023-03-14T05:44:30.097Z,4.32
2023-03-14T05:46:57.212Z,4.40
2023-03-14T05:49:24.372Z,4.22
2023-03-14T05:51:51.592Z,4.45
2023-03-14T05:54:19.005Z,4.32
2023-03-14T05:56:46.089Z,4.10
2023-03-14T05:59:14.959Z,3.95
2023-03-14T06:01:42.186Z,4.35
2023-03-14T06:04:09.366Z,3.92
2023-03-14T06:06:36.509Z,3.85
2023-03-14T06:09:03.609Z,3.80
2023-03-14T06:11:30.705Z,3.75
2023-03-14T06:13:57.860Z,3.97
2023-03-14T06:16:24.975Z,3.55
2023-03-14T06:18:53.172Z,3.90
2023-03-14T06:21:20.660Z,4.22
2023-03-14T06:23:47.750Z,4.30
2023-03-14T06:26:14.864Z,3.75
2023-03-14T06:28:42.197Z,3.45
2023-03-14T06:31:09.456Z,3.65
2023-03-14T06:33:36.700Z,4.07
2023-03-14T06:36:03.946Z,3.95
2023-03-14T06:38:31.087Z,3.85
2023-03-14T06:40:58.241Z,4.03
2023-03-14T06:43:25.487Z,3.75
2023-03-14T06:45:52.615Z,3.72
2023-03-14T06:48:19.955Z,4.25
2023-03-14T06:50:47.078Z,3.72
2023-03-14T06:53:14.203Z,3.67
2023-03-14T06:55:41.334Z,3.80
2023-03-14T06:58:09.149Z,4.40
2023-03-14T07:00:36.345Z,4.03
2023-03-14T07:03:03.413Z,3.90
2023-03-14T07:05:30.702Z,3.78
2023-03-14T07:07:58.168Z,3.63
2023-03-14T07:10:25.357Z,4.00
2023-03-14T07:12:53.803Z,3.97
2023-03-14T07:15:21.469Z,4.28
2023-03-14T07:17:51.873Z,3.97
2023-03-14T07:20:19.112Z,4.43
2023-03-14T07:22:49.190Z,4.55
2023-03-14T07:25:16.339Z,3.63
2023-03-14T07:27:47.799Z,3.88
2023-03-14T07:30:15.510Z,4.07
2023-03-14T07:32:42.713Z,4.32
2023-03-14T07:35:10.465Z,3.78
2023-03-14T07:37:37.552Z,3.90
2023-03-14T07:40:08.038Z,3.80
2023-03-14T07:42:35.329Z,3.72
2023-03-14T07:45:03.914Z,4.57
2023-03-14T07:47:31.032Z,4.28
2023-03-14T07:49:58.166Z,4.10
2023-03-14T07:52:25.393Z,4.68
2023-03-14T07:54:52.493Z,4.60
2023-03-14T07:57:19.640Z,4.18
2023-03-14T07:59:46.747Z,3.67
2023-03-14T08:02:14.069Z,4.32
2023-03-14T08:04:41.426Z,3.85
2023-03-14T08:07:08.786Z,4.50
2023-03-14T08:09:36.229Z,4.03
2023-03-14T08:12:03.412Z,4.57
2023-03-14T08:14:31.836Z,4.13
2023-03-14T08:16:58.926Z,4.40
2023-03-14T08:19:26.141Z,4.78
2023-03-14T08:21:53.290Z,4.70
2023-03-14T08:24:20.393Z,4.40
2023-03-14T08:26:48.044Z,5.43
2023-03-14T08:29:15.120Z,4.60
2023-03-14T08:31:42.255Z,5.20
2023-03-14T08:34:09.643Z,4.40
2023-03-14T08:36:36.829Z,5.85
2023-03-14T08:39:04.999Z,5.07
2023-03-14T08:41:32.244Z,5.25
2023-03-14T08:43:59.419Z,4.25
2023-03-14T08:46:26.663Z,3.50
2023-03-14T08:48:53.839Z,4.38
2023-03-14T08:51:20.978Z,4.07
2023-03-14T08:53:48.053Z,4.38
2023-03-14T08:56:15.160Z,4.00
2023-03-14T08:58:42.442Z,4.25
2023-03-14T09:01:11.437Z,4.10
2023-03-14T09:03:39.293Z,3.90
2023-03-14T09:06:07.624Z,3.65
2023-03-14T09:08:35.917Z,3.72
2023-03-14T09:11:04.129Z,4.10
2023-03-14T09:13:31.197Z,4.20
2023-03-14T09:15:58.594Z,4.20
2023-03-14T09:18:25.845Z,4.50
2023-03-14T09:20:53.007Z,4.32
2023-03-14T09:23:20.082Z,4.68
2023-03-14T09:25:48.123Z,4.03
2023-03-14T09:28:15.241Z,4.38
2023-03-14T09:30:42.423Z,3.90
2023-03-14T09:33:09.569Z,4.20
2023-03-14T09:35:36.699Z,4.03
2023-03-14T09:38:03.986Z,4.50
2023-03-14T09:40:34.493Z,4.20
2023-03-14T09:43:01.593Z,4.15
2023-03-14T09:45:37.288Z,3.90
2023-03-14T09:48:05.341Z,3.30
2023-03-14T09:50:38.917Z,3.72
2023-03-14T09:53:12.970Z,4.35
2023-03-14T09:55:40.477Z,3.58
2023-03-14T09:58:12.117Z,4.03
2023-03-14T10:00:39.239Z,3.58
2023-03-14T10:03:21.611Z,3.83
2023-03-14T10:05:48.736Z,4.13
2023-03-14T10:08:15.900Z,3.65
2023-03-14T10:10:43.055Z,3.80
2023-03-14T10:13:15.314Z,3.75
2023-03-14T10:15:42.530Z,3.92
2023-03-14T10:18:14.022Z,4.03
2023-03-14T10:20:50.939Z,4.03
2023-03-14T10:23:17.999Z,4.05
2023-03-14T10:25:47.170Z,4.00
2023-03-14T10:28:28.137Z,3.83
2023-03-14T10:30:55.547Z,4.22
2023-03-14T10:33:32.712Z,3.60
2023-03-14T10:36:18.782Z,4.35
2023-03-14T10:38:45.982Z,4.50
2023-03-14T10:41:18.380Z,4.05
2023-03-14T10:43:45.523Z,3.50
2023-03-14T10:46:19.908Z,3.97
2023-03-14T10:48:47.372Z,5.60
2023-03-14T10:51:25.935Z,5.57
2023-03-14T10:54:00.633Z,5.35
2023-03-14T10:56:28.943Z,5.05
2023-03-14T10:58:58.711Z,3.92
2023-03-14T11:01:38.771Z,4.53
2023-03-14T11:04:05.868Z,4.60
2023-03-14T11:06:46.051Z,3.95
2023-03-14T11:09:39.517Z,3.70
2023-03-14T11:12:25.140Z,3.92
2023-03-14T11:14:57.913Z,4.00
2023-03-14T11:17:24.978Z,3.58
2023-03-14T11:19:58.954Z,4.00
2023-03-14T11:22:32.775Z,3.22
2023-03-14T11:25:18.569Z,3.25
2023-03-14T11:28:04.519Z,3.85
2023-03-14T11:30:31.867Z,3.45
2023-03-14T11:33:17.604Z,3.30
2023-03-14T11:35:44.787Z,3.40
2023-03-14T11:38:17.831Z,3.20
2023-03-14T11:40:46.331Z,2.92
2023-03-14T11:43:16.293Z,3.20
2023-03-14T11:45:44.386Z,3.10
2023-03-14T11:48:17.709Z,3.40
2023-03-14T11:50:45.782Z,2.90
2023-03-14T11:53:15.583Z,2.42
2023-03-14T11:55:43.861Z,2.70
2023-03-14T11:58:26.350Z,2.42
2023-03-14T12:00:55.179Z,2.95
2023-03-14T12:03:28.115Z,2.70
2023-03-14T12:06:21.538Z,2.20
2023-03-14T12:08:59.335Z,2.63
2023-03-14T12:11:37.955Z,2.40
2023-03-14T12:14:05.108Z,2.72
2023-03-14T12:16:34.473Z,2.55
2023-03-14T12:19:15.182Z,2.55
2023-03-14T12:21:48.780Z,2.78
2023-03-14T12:24:25.197Z,2.53
2023-03-14T12:26:56.852Z,2.72
2023-03-14T12:29:24.986Z,2.72
2023-03-14T12:32:01.150Z,2.15
2023-03-14T12:34:35.288Z,2.88
2023-03-14T12:37:24.634Z,2.70
2023-03-14T12:39:57.915Z,2.10
2023-03-14T12:42:43.929Z,2.35
2023-03-14T12:45:30.247Z,2.65
2023-03-14T12:48:12.760Z,2.15
2023-03-14T12:50:43.642Z,2.13
2023-03-14T12:53:21.727Z,1.95
2023-03-14T12:55:54.585Z,2.40
2023-03-14T12:58:31.547Z,2.40
2023-03-14T13:01:01.018Z,2.00
2023-03-14T13:03:37.904Z,2.05
2023-03-14T13:06:05.524Z,2.40
2023-03-14T13:08:43.207Z,2.08
2023-03-14T13:11:30.577Z,2.15
2023-03-14T13:13:59.051Z,2.05
2023-03-14T13:16:27.039Z,2.58
2023-03-14T13:19:05.549Z,3.08
2023-03-14T13:21:36.925Z,2.55
2023-03-14T13:24:05.617Z,2.35
2023-03-14T13:26:45.202Z,2.00
2023-03-14T13:29:19.439Z,2.10
2023-03-14T13:31:47.088Z,2.78
2023-03-14T13:34:14.240Z,2.10
2023-03-14T13:36:41.340Z,2.53
2023-03-14T13:39:13.886Z,2.65
2023-03-14T13:41:44.719Z,2.33
2023-03-14T13:44:15.951Z,2.33
2023-03-14T13:49:14.599Z,2.80
2023-03-14T13:51:42.065Z,2.10
2023-03-14T13:54:20.444Z,2.10
2023-03-14T13:56:48.186Z,1.98
2023-03-14T13:59:29.341Z,1.75
2023-03-14T14:01:57.551Z,2.20
2023-03-14T14:04:26.385Z,3.03
2023-03-14T14:06:58.900Z,2.90
2023-03-14T14:09:27.953Z,2.63
2023-03-14T14:12:15.922Z,2.00
2023-03-14T14:14:46.907Z,2.95
2023-03-14T14:17:16.519Z,1.50
2023-03-14T14:19:44.821Z,1.95
2023-03-14T14:22:12.425Z,1.77
2023-03-14T14:24:40.486Z,1.92
2023-03-14T14:27:13.492Z,1.80
2023-03-14T14:29:40.673Z,2.10
2023-03-14T14:32:10.995Z,2.00
2023-03-14T14:34:50.519Z,1.63
2023-03-14T14:37:17.809Z,1.70
2023-03-14T14:39:45.128Z,1.70
2023-03-14T14:42:17.648Z,1.60
2023-03-14T14:44:45.597Z,1.52
2023-03-14T14:47:19.199Z,1.70
2023-03-14T14:49:46.486Z,1.77
2023-03-14T14:52:16.445Z,1.85
2023-03-14T14:54:55.561Z,2.03
2023-03-14T14:57:29.419Z,2.13
2023-03-14T14:59:57.571Z,1.77
2023-03-14T15:02:28.701Z,2.03
2023-03-14T15:04:55.891Z,1.98
2023-03-14T15:07:23.059Z,2.15
2023-03-14T15:09:50.129Z,2.10
2023-03-14T15:12:17.265Z,2.10
2023-03-14T15:14:44.439Z,1.45
2023-03-14T15:17:13.053Z,2.42
2023-03-14T15:19:40.663Z,1.80
2023-03-14T15:22:14.529Z,2.05
2023-03-14T15:24:42.177Z,1.63
2023-03-14T15:27:15.709Z,2.35
2023-03-14T15:29:43.278Z,2.00
2023-03-14T15:32:14.414Z,2.00
2023-03-14T15:34:41.714Z,1.63
2023-03-14T15:37:16.655Z,1.50
2023-03-14T15:39:44.428Z,2.30
2023-03-14T15:42:11.746Z,1.75
2023-03-14T15:44:40.058Z,2.00
2023-03-14T15:47:08.124Z,1.85
2023-03-14T15:49:35.655Z,2.13
2023-03-14T15:52:03.101Z,1.95
2023-03-14T15:54:30.391Z,1.65
2023-03-14T15:56:57.629Z,1.80
2023-03-14T15:59:25.322Z,1.67
2023-03-14T16:01:52.834Z,1.75
2023-03-14T16:04:20.268Z,2.08
2023-03-14T16:06:48.010Z,1.50
2023-03-14T16:09:15.485Z,1.70
2023-03-14T16:11:42.637Z,2.17
2023-03-14T16:14:09.799Z,1.98
2023-03-14T16:16:37.790Z,2.25
2023-03-14T16:19:06.145Z,1.83
2023-03-14T16:21:34.149Z,2.00
2023-03-14T16:24:03.167Z,2.17
2023-03-14T16:26:30.296Z,2.50
2023-03-14T16:28:57.405Z,2.25
2023-03-14T16:31:26.174Z,2.28
2023-03-14T16:33:53.359Z,2.03
2023-03-14T16:36:20.575Z,2.03
2023-03-14T16:38:47.783Z,2.25
2023-03-14T16:41:16.369Z,2.30
2023-03-14T16:43:43.918Z,2.65
2023-03-14T16:46:17.723Z,1.63
2023-03-14T16:48:45.176Z,2.00
2023-03-14T16:51:12.397Z,2.63
2023-03-14T16:53:39.572Z,2.30
2023-03-14T16:56:06.884Z,2.63
2023-03-14T16:58:34.020Z,1.98
2023-03-14T17:01:10.488Z,1.77
2023-03-14T17:03:38.921Z,2.10
2023-03-14T17:06:06.346Z,1.90
2023-03-14T17:08:33.704Z,1.85
2023-03-14T17:11:00.984Z,1.70
2023-03-14T17:13:28.212Z,1.63
2023-03-14T17:15:56.269Z,1.77
2023-03-14T17:18:24.220Z,1.65
2023-03-14T17:20:55.548Z,1.98
2023-03-14T17:25:50.495Z,2.40
2023-03-14T17:28:18.566Z,2.10
2023-03-14T17:30:46.114Z,1.80
2023-03-14T17:33:13.779Z,2.13
2023-03-14T17:35:41.290Z,2.25
2023-03-14T17:38:08.514Z,2.08
2023-03-14T17:40:35.679Z,2.10
2023-03-14T17:43:02.798Z,1.90
2023-03-14T17:45:30.124Z,1.92
2023-03-14T17:47:57.274Z,2.03
2023-03-14T17:50:24.371Z,1.80
2023-03-14T17:52:51.676Z,1.70
2023-03-14T17:55:18.825Z,1.77
2023-03-14T17:57:45.945Z,2.17
2023-03-14T18:00:13.787Z,1.92
2023-03-14T18:02:41.822Z,1.98
2023-03-14T18:05:09.294Z,1.65
2023-03-14T18:07:36.738Z,2.67
2023-03-14T18:10:04.682Z,1.85
2023-03-14T18:12:32.202Z,3.05
2023-03-14T18:14:59.402Z,2.10
2023-03-14T18:17:26.561Z,2.10
2023-03-14T18:19:55.741Z,2.60
2023-03-14T18:22:22.982Z,2.50
2023-03-14T18:24:50.269Z,2.30
2023-03-14T18:27:17.943Z,2.63
2023-03-14T18:29:45.249Z,3.08
2023-03-14T18:32:12.380Z,2.28
2023-03-14T18:34:39.492Z,2.17
2023-03-14T18:37:07.311Z,2.63
2023-03-14T18:39:35.452Z,2.33
2023-03-14T18:42:02.515Z,1.73
2023-03-14T18:44:29.747Z,2.03
2023-03-14T18:46:56.897Z,1.90
2023-03-14T18:49:23.980Z,1.80
2023-03-14T18:51:51.370Z,1.65
2023-03-14T18:54:18.481Z,1.80
2023-03-14T18:56:45.601Z,1.75
2023-03-14T18:59:12.888Z,1.92
2023-03-14T19:01:40.209Z,1.67
2023-03-14T19:04:09.468Z,1.80
2023-03-14T19:06:37.957Z,2.53
2023-03-14T19:09:06.083Z,2.60
2023-03-14T19:11:33.211Z,2.40
2023-03-14T19:14:00.693Z,2.10
2023-03-14T19:16:28.144Z,2.10
2023-03-14T19:18:55.752Z,2.58
2023-03-14T19:21:27.972Z,3.00
2023-03-14T19:23:55.101Z,2.47
2023-03-14T19:26:22.298Z,3.05
2023-03-14T19:28:49.454Z,2.33
2023-03-14T19:31:16.637Z,2.50
2023-03-14T19:33:43.769Z,2.50
2023-03-14T19:36:21.365Z,2.28
2023-03-14T19:38:48.652Z,2.55
2023-03-14T19:41:15.784Z,2.25
2023-03-14T19:43:42.996Z,2.22
2023-03-14T19:46:10.340Z,2.22
2023-03-14T19:48:37.669Z,2.00
2023-03-14T19:51:04.980Z,1.90
2023-03-14T19:53:32.544Z,2.53
2023-03-14T19:55:59.647Z,2.00
2023-03-14T19:58:26.822Z,2.25
2023-03-14T20:00:56.025Z,2.05
2023-03-14T20:03:23.807Z,2.28
2023-03-14T20:05:53.282Z,2.08
2023-03-14T20:08:24.012Z,2.03
2023-03-14T20:10:51.226Z,2.40
2023-03-14T20:13:22.001Z,2.55
2023-03-14T20:15:50.255Z,1.80
2023-03-14T20:18:17.391Z,2.20
2023-03-14T20:20:44.598Z,1.92
2023-03-14T20:23:12.908Z,2.17
2023-03-14T20:25:40.199Z,2.33
2023-03-14T20:28:07.439Z,2.05
2023-03-14T20:30:35.110Z,2.35
2023-03-14T20:33:05.626Z,2.47
2023-03-14T20:35:32.948Z,2.10
2023-03-14T20:38:00.080Z,2.20
2023-03-14T20:40:29.096Z,2.20
2023-03-14T20:42:56.693Z,2.30
2023-03-14T20:45:23.814Z,2.65
2023-03-14T20:47:50.953Z,2.20
2023-03-14T20:50:18.337Z,2.22
2023-03-14T20:52:45.543Z,2.50
2023-03-14T20:55:12.870Z,2.60
2023-03-14T20:57:40.171Z,2.33
2023-03-14T21:00:07.811Z,2.80
2023-03-14T21:02:35.142Z,3.00
2023-03-14T21:05:02.525Z,3.08
2023-03-14T21:07:41.394Z,4.70
2023-03-14T21:10:13.699Z,2.83
2023-03-14T21:12:40.990Z,3.30
2023-03-14T21:15:08.712Z,3.22
2023-03-14T21:17:37.341Z,3.72
2023-03-14T21:20:06.689Z,3.45
2023-03-14T21:22:33.853Z,3.42
2023-03-14T21:25:01.031Z,3.95
2023-03-14T21:27:28.341Z,3.50
2023-03-14T21:29:55.448Z,4.10
2023-03-14T21:32:22.610Z,3.95
2023-03-14T21:34:49.854Z,3.70
2023-03-14T21:37:17.181Z,3.80
2023-03-14T21:39:44.341Z,4.18
2023-03-14T21:42:11.509Z,3.90
2023-03-14T21:44:38.646Z,3.83
2023-03-14T21:47:06.498Z,3.95
2023-03-14T21:49:39.944Z,4.22
2023-03-14T21:52:07.969Z,4.53
2023-03-14T21:54:35.159Z,5.15
2023-03-14T21:57:03.039Z,4.38
2023-03-14T21:59:34.050Z,4.30
2023-03-14T22:02:02.695Z,4.35
2023-03-14T22:04:34.782Z,4.57
2023-03-14T22:07:06.041Z,4.82
2023-03-14T22:09:33.622Z,4.97
2023-03-14T22:12:00.834Z,5.28
2023-03-14T22:14:27.958Z,4.80
2023-03-14T22:16:55.191Z,5.18
2023-03-14T22:19:22.810Z,5.40
2023-03-14T22:21:49.919Z,5.25
2023-03-14T22:24:17.066Z,5.30
2023-03-14T22:26:44.400Z,5.32
2023-03-14T22:29:11.496Z,5.00
2023-03-14T22:31:38.660Z,4.97
2023-03-14T22:34:05.802Z,5.55
2023-03-14T22:36:32.894Z,4.80
2023-03-14T22:39:00.084Z,4.45
2023-03-14T22:41:27.272Z,4.57
2023-03-14T22:43:55.487Z,4.68
2023-03-14T22:46:22.592Z,4.75
2023-03-14T22:48:49.736Z,5.05
2023-03-14T22:51:17.082Z,4.43
2023-03-14T22:53:44.176Z,4.60
2023-03-14T22:56:11.432Z,4.00
2023-03-14T22:58:38.694Z,4.50
2023-03-14T23:01:06.319Z,4.50
2023-03-14T23:03:33.631Z,4.25
2023-03-14T23:06:00.708Z,4.72
2023-03-14T23:08:27.822Z,4.82
2023-03-14T23:11:01.440Z,4.00
2023-03-14T23:13:28.776Z,3.85
2023-03-14T23:15:55.952Z,3.97
2023-03-14T23:18:27.831Z,3.67
2023-03-14T23:21:08.056Z,3.83
2023-03-14T23:23:35.220Z,3.47
2023-03-14T23:26:03.535Z,3.78
2023-03-14T23:28:31.113Z,3.78
2023-03-14T23:30:58.764Z,3.30
2023-03-14T23:33:27.034Z,3.28
2023-03-14T23:35:55.305Z,3.70
2023-03-14T23:38:25.931Z,3.60
2023-03-14T23:40:53.499Z,3.42
2023-03-14T23:43:21.395Z,3.28
2023-03-14T23:45:49.742Z,3.30
2023-03-14T23:48:16.871Z,3.17
2023-03-14T23:50:43.980Z,2.78
2023-03-14T23:53:11.146Z,3.08
2023-03-14T23:55:38.336Z,2.80
2023-03-14T23:58:05.419Z,2.75
